Davenport, WA

4:43 PM PDT on September 01, 2014 (GMT -0700)
Davenport, WA | Change Station
CLOSE
Current Station
Personal Weather Station
Location: Davenport, WA
Elevation: 2375 ft
Nearby Weather Stations

Elev 2375 ft 47.65 °N, 118.15 °W | Updated 9 minutes ago

Clear
Clear
76.1 °F
Feels Like 77 °F
N
0.0
Wind Variable Wind from WSW

Today
High -- | Low -- °F
--% Chance of Precip.
Yesterday
High -- | Low -- °F
Precip. -- in
6:11 AM 7:32 PM
Waxing Crescent, 45% visible
Pressure 29.99 in
Visibility 10.0 miles
Clouds Clear
Heat Index 77 °F
Dew Point 41 °F
Humidity 28%
Rainfall 0.00 in
Snow Depth Not available.
UV 4 out of 12
Pollen 6.50 out of 12
PM2.5 Good
Flu Activity Not available.
METAR KSKA 012258Z AUTO 23013KT 10SM CLR 22/02 A2999 RMK AO2 SLP154 T02190024

More Conditions Fewer Conditions

Pressure 29.99 in
Visibility 10.0 miles
Clouds Clear
Heat Index 77 °F
Dew Point 41 °F
Humidity 28%
Rainfall 0.00 in
Snow Depth Not available.
UV 4 out of 12
Pollen 6.50 out of 12
PM2.5 Good
Flu Activity Not available.
METAR KSKA 012258Z AUTO 23013KT 10SM CLR 22/02 A2999 RMK AO2 SLP154 T02190024

More Conditions Fewer Conditions

10-Day Weather Forecast

Almanac

Astronomy

Sep. 01, 2014 Rise Set
Actual Time 6:11 AM PDT 7:32 PM PDT
Civil Twilight 5:39 AM PDT 8:04 PM PDT
Nautical Twilight 5:00 AM PDT 8:43 PM PDT
Astronomical Twilight 4:18 AM PDT 9:24 PM PDT
Moon 1:30 PM PDT 11:08 PM PDT
Length of Visible Light 14h 25m
Length of Day
13h 21m
Tomorrow will be 3m 20s shorter.
Waxing Crescent, 45% of the Moon is Illuminated
Today
Waxing Crescent
Sep 2
First Quarter
Sep 8
Full
Sep 15
Last Quarter
Sep 24
New

Today's Extremes

State Highs State Lows

Community

WunderPhotos

Upload Photos

1,749,440 photos uploaded!

Nearby

Air Quality

  Air Quality AQ Index Pollutant
Yesterday Good
OZONE
Yesterday Good
PM10
Current Good
PM2.5
Monday Good
PM10
Tuesday Good
PM2.5

Snow Depth

Station Depth Elevation
Quartz Peak 1 in 4700 ft
Moses Mountain 1 in 5300 ft
Spruce Springs 0 in 5700 ft
Touchet 0 in 5530 ft
Upper Wheeler 0 in 4400 ft

Earthquake Activity

City Distance Mag. Time & Date
No recent earthquake activity has been reported nearby.
Minimum magnitude displayed is 2.5.

Coastal Water Temperatures

Place Temperature
No Stations Reporting

Nearby Weather Stations